Time Latitude Longitude Accuracy (66% radius in meters) Altitude (meters) Speed (km/hour) Bearing (degrees) Battery (%) GPS flag
07:28:14 57.204013 60.118190 0 0 0 0 1 delete
07:28:13 57.204016 60.118189 0 0 0 0 1 delete
07:28:12 57.204019 60.118189 0 0 0 0 1 delete
07:28:11 57.204022 60.118188 0 0 0 0 1 delete
07:28:10 57.204023 60.118184 0 0 0 0 1 delete
07:28:09 57.204025 60.118175 0 0 0 0 1 delete
07:28:08 57.204027 60.118164 0 0 0 0 1 delete
07:28:07 57.204028 60.118150 0 0 0 0 1 delete
07:28:06 57.204030 60.118136 0 0 0 0 1 delete
07:28:05 57.204032 60.118124 0 0 0 0 1 delete
07:28:04 57.204034 60.118112 0 0 0 0 1 delete
07:28:03 57.204034 60.118106 0 0 0 0 1 delete
07:28:02 57.204029 60.118102 0 0 0 0 1 delete
07:28:01 57.204025 60.118101 0 0 0 0 1 delete
07:28:00 57.204026 60.118095 0 0 0 0 1 delete
07:27:59 57.204035 60.118083 0 0 0 0 1 delete
07:27:58 57.204050 60.118063 0 0 0 0 1 delete
07:27:57 57.204065 60.118041 0 0 0 0 1 delete
07:27:56 57.204081 60.118017 0 0 0 0 1 delete
07:27:55 57.204094 60.117992 0 0 0 0 1 delete
07:27:54 57.204106 60.117967 0 0 0 0 1 delete
07:27:53 57.204118 60.117947 0 0 0 0 1 delete
07:27:52 57.204127 60.117928 0 0 0 0 1 delete
07:27:51 57.204138 60.117906 0 0 0 0 1 delete
07:27:50 57.204152 60.117885 0 0 0 0 1 delete
07:27:49 57.204167 60.117866 0 0 0 0 1 delete
07:27:48 57.204182 60.117847 0 0 0 0 1 delete
07:27:47 57.204198 60.117822 0 0 0 0 1 delete
07:27:46 57.204214 60.117799 0 0 0 0 1 delete
07:27:45 57.204230 60.117776 0 0 0 0 1 delete
07:27:44 57.204243 60.117756 0 0 0 0 1 delete
07:27:43 57.204261 60.117734 0 0 0 0 1 delete
07:27:42 57.204276 60.117715 0 0 0 0 1 delete
07:27:41 57.204292 60.117697 0 0 0 0 1 delete
07:27:40 57.204307 60.117680 0 0 0 0 1 delete
07:27:39 57.204326 60.117661 0 0 0 0 1 delete
07:27:38 57.204344 60.117644 0 0 0 0 1 delete
07:27:37 57.204361 60.117627 0 0 0 0 1 delete
07:27:36 57.204377 60.117609 0 0 0 0 1 delete
07:27:35 57.204395 60.117587 0 0 0 0 1 delete
07:27:34 57.204409 60.117568 0 0 0 0 1 delete
07:27:33 57.204426 60.117551 0 0 0 0 1 delete
07:27:32 57.204443 60.117536 0 0 0 0 1 delete
07:27:31 57.204465 60.117519 0 0 0 0 1 delete
07:27:30 57.204486 60.117503 0 0 0 0 1 delete
07:27:29 57.204507 60.117489 0 0 0 0 1 delete
07:27:28 57.204528 60.117477 0 0 0 0 1 delete
07:27:27 57.204552 60.117463 0 0 0 0 1 delete
07:27:26 57.204574 60.117449 0 0 0 0 1 delete
07:27:25 57.204595 60.117437 0 0 0 0 1 delete